createdAt,value
2023-04-02T07:37:47.191Z,10.75
2023-04-02T07:40:19.344Z,9.30
2023-04-02T07:42:47.066Z,9.93
2023-04-02T07:45:14.803Z,9.53
2023-04-02T07:47:42.491Z,9.77
2023-04-02T07:50:10.643Z,9.23
2023-04-02T07:52:44.502Z,9.63
2023-04-02T07:55:12.958Z,10.37
2023-04-02T07:57:49.418Z,9.63
2023-04-02T08:00:17.428Z,10.10
2023-04-02T08:02:44.828Z,8.80
2023-04-02T08:05:12.231Z,9.23
2023-04-02T08:07:39.771Z,9.10
2023-04-02T08:10:08.252Z,9.90
2023-04-02T08:12:36.088Z,8.23
2023-04-02T08:15:05.899Z,8.30
2023-04-02T08:17:33.763Z,8.67
2023-04-02T08:20:01.761Z,8.00
2023-04-02T08:22:29.827Z,8.43
2023-04-02T08:24:57.283Z,8.47
2023-04-02T08:27:25.082Z,8.13
2023-04-02T08:29:52.683Z,7.93
2023-04-02T08:32:20.047Z,8.13
2023-04-02T08:34:47.803Z,9.13
2023-04-02T08:37:15.147Z,8.60
2023-04-02T08:39:42.596Z,8.93
2023-04-02T08:42:23.432Z,8.97
2023-04-02T08:45:08.102Z,10.23
2023-04-02T08:47:41.902Z,9.47
2023-04-02T08:50:13.080Z,9.67
2023-04-02T08:52:40.442Z,10.37
2023-04-02T08:55:18.635Z,10.13
2023-04-02T08:57:50.397Z,10.57
2023-04-02T09:00:56.326Z,9.70
2023-04-02T09:03:32.009Z,9.27
2023-04-02T09:06:00.758Z,8.83
2023-04-02T09:08:28.794Z,8.20
2023-04-02T09:10:58.647Z,7.23
2023-04-02T09:13:27.911Z,7.50
2023-04-02T09:16:25.525Z,6.60
2023-04-02T09:18:54.556Z,6.70
2023-04-02T09:21:28.212Z,6.20
2023-04-02T09:23:56.036Z,5.93
2023-04-02T09:26:24.527Z,5.90
2023-04-02T09:28:53.411Z,6.63
2023-04-02T09:31:23.366Z,6.57
2023-04-02T09:33:51.732Z,7.47
2023-04-02T09:36:19.241Z,7.00
2023-04-02T09:38:58.682Z,7.20
2023-04-02T09:41:27.761Z,6.83
2023-04-02T09:44:27.475Z,6.80
2023-04-02T09:46:59.572Z,6.30
2023-04-02T09:49:28.923Z,5.90
2023-04-02T09:52:20.253Z,5.40
2023-04-02T09:55:08.267Z,5.63
2023-04-02T09:57:45.658Z,5.50
2023-04-02T10:03:02.673Z,4.73
2023-04-02T10:05:40.481Z,12.27
2023-04-02T10:08:10.446Z,6.67
2023-04-02T10:10:40.653Z,6.10
2023-04-02T10:13:09.981Z,4.53
2023-04-02T10:15:48.697Z,4.77
2023-04-02T10:18:22.352Z,5.10
2023-04-02T10:20:53.983Z,4.70
2023-04-02T10:23:25.429Z,4.80
2023-04-02T10:26:01.155Z,4.87
2023-04-02T10:28:28.488Z,4.70
2023-04-02T10:31:07.344Z,4.73
2023-04-02T10:33:38.158Z,4.70
2023-04-02T10:36:24.073Z,4.27
2023-04-02T10:38:55.398Z,4.50
2023-04-02T10:41:42.660Z,4.73
2023-04-02T10:44:20.597Z,4.70
2023-04-02T10:46:56.402Z,5.20
2023-04-02T10:49:28.929Z,4.90
2023-04-02T10:52:00.908Z,4.80
2023-04-02T10:54:36.638Z,4.67
2023-04-02T10:57:13.598Z,5.37
2023-04-02T10:59:44.331Z,5.97
2023-04-02T11:02:22.149Z,6.37
2023-04-02T11:04:50.883Z,6.83
2023-04-02T11:07:23.748Z,7.27
2023-04-02T11:09:52.967Z,10.17
2023-04-02T11:12:31.965Z,7.90
2023-04-02T11:14:59.943Z,7.20
2023-04-02T11:17:27.622Z,7.27
2023-04-02T11:19:56.633Z,7.47
2023-04-02T11:22:25.112Z,7.77
2023-04-02T11:24:54.526Z,8.50
2023-04-02T11:27:27.082Z,9.43
2023-04-02T11:30:17.301Z,9.70
2023-04-02T11:32:50.260Z,9.13
2023-04-02T11:35:26.285Z,9.50
2023-04-02T11:38:28.538Z,9.17
2023-04-02T11:40:56.509Z,9.07
2023-04-02T11:43:37.048Z,9.27
2023-04-02T11:46:04.495Z,9.17
2023-04-02T11:48:36.837Z,8.60
2023-04-02T11:51:24.289Z,8.60
2023-04-02T11:53:55.476Z,9.90
2023-04-02T11:56:24.254Z,8.93
2023-04-02T11:59:09.929Z,9.67
2023-04-02T12:01:59.764Z,9.57
2023-04-02T12:04:34.348Z,9.90
2023-04-02T12:07:26.887Z,9.50
2023-04-02T12:10:04.832Z,9.27
2023-04-02T12:12:38.398Z,8.53
2023-04-02T12:15:26.221Z,8.27
2023-04-02T12:17:53.763Z,8.83
2023-04-02T12:20:22.840Z,8.67
2023-04-02T12:22:54.193Z,8.77
2023-04-02T12:25:24.547Z,7.87
2023-04-02T12:28:17.962Z,8.00
2023-04-02T12:30:52.592Z,8.50
2023-04-02T12:33:30.718Z,8.00
2023-04-02T12:36:00.162Z,7.70
2023-04-02T12:38:29.074Z,8.30
2023-04-02T12:40:58.079Z,7.70
2023-04-02T12:43:26.253Z,7.57
2023-04-02T12:45:54.909Z,7.83
2023-04-02T15:35:27.574Z,6.40
2023-04-02T15:38:13.769Z,6.30
2023-04-02T15:40:46.950Z,6.00
2023-04-02T15:43:14.315Z,8.63
2023-04-02T15:45:49.721Z,6.43
2023-04-02T15:48:35.967Z,6.90
2023-04-02T15:51:26.487Z,6.33
2023-04-02T15:53:56.864Z,6.77
2023-04-02T15:56:40.098Z,7.50
2023-04-02T15:59:22.723Z,7.07
2023-04-02T16:01:50.004Z,6.63
2023-04-02T16:04:40.631Z,7.07
2023-04-02T16:07:40.367Z,6.67
2023-04-02T16:10:08.561Z,6.40
2023-04-02T16:12:37.697Z,6.47
2023-04-02T16:15:16.141Z,6.03
2023-04-02T16:17:47.109Z,6.40
2023-04-02T16:20:43.429Z,6.50
2023-04-02T16:23:14.965Z,5.90
2023-04-02T16:25:53.626Z,6.33
2023-04-02T16:28:39.541Z,6.10
2023-04-02T16:31:07.028Z,6.53
2023-04-02T16:33:34.371Z,6.53
2023-04-02T16:36:10.719Z,6.80
2023-04-02T16:38:46.732Z,6.60
2023-04-02T16:41:32.154Z,6.83
2023-04-02T16:44:02.947Z,6.07
2023-04-02T16:46:46.031Z,6.77
2023-04-02T16:49:21.097Z,6.43
2023-04-02T16:51:57.612Z,6.97
2023-04-02T16:54:35.388Z,7.70
2023-04-02T16:57:26.335Z,9.20
2023-04-02T16:59:53.732Z,6.83
2023-04-02T17:02:30.506Z,6.67
2023-04-02T17:05:13.445Z,6.27
2023-04-02T17:08:04.927Z,6.53
2023-04-02T17:10:38.741Z,6.90
2023-04-02T17:13:12.895Z,6.07
2023-04-02T17:15:41.531Z,5.90
2023-04-02T17:18:16.789Z,6.07
2023-04-02T17:20:48.109Z,6.10
2023-04-02T17:23:25.733Z,6.30
2023-04-02T17:26:02.741Z,6.33
2023-04-02T17:28:37.163Z,6.40
2023-04-02T17:31:06.656Z,6.70
2023-04-02T17:33:34.612Z,7.00
2023-04-02T17:36:10.903Z,7.33
2023-04-02T17:38:50.380Z,7.93
2023-04-02T17:41:17.705Z,7.60
2023-04-02T17:43:57.388Z,7.80
2023-04-02T17:46:24.946Z,8.20
2023-04-02T17:49:12.859Z,7.17
2023-04-02T17:51:42.215Z,7.30
2023-04-02T17:54:15.546Z,7.83
2023-04-02T17:57:01.659Z,8.20
2023-04-02T17:59:29.143Z,7.00
2023-04-02T18:01:59.276Z,7.10
2023-04-02T18:04:53.007Z,7.23
2023-04-02T18:07:20.533Z,6.60
2023-04-02T18:09:51.465Z,6.80
2023-04-02T18:12:25.786Z,7.03
2023-04-02T18:15:11.677Z,5.70
2023-04-02T18:17:39.073Z,6.03
2023-04-02T18:20:06.732Z,5.53
2023-04-02T18:22:45.573Z,6.07
2023-04-02T18:25:31.500Z,6.33
2023-04-02T18:28:17.390Z,5.60
2023-04-02T18:30:44.739Z,6.13
2023-04-02T18:33:24.157Z,5.90
2023-04-02T18:35:51.717Z,5.70
2023-04-02T18:38:21.974Z,4.70
2023-04-02T18:41:04.659Z,5.43
2023-04-02T18:43:35.058Z,4.93
2023-04-02T18:46:35.088Z,5.13
2023-04-02T18:49:02.541Z,5.00
2023-04-02T18:51:32.984Z,5.10
2023-04-02T18:54:11.930Z,10.00
2023-04-02T18:56:39.941Z,4.47
2023-04-02T18:59:07.223Z,5.20
2023-04-02T19:01:37.431Z,5.43
2023-04-02T19:04:06.834Z,5.30
2023-04-02T19:06:43.230Z,5.53
2023-04-02T19:09:22.502Z,7.57
2023-04-02T19:11:52.915Z,5.83
2023-04-02T19:14:21.356Z,5.53
2023-04-02T19:16:57.515Z,5.50
2023-04-02T19:19:27.115Z,5.30
2023-04-02T19:21:54.405Z,5.00
2023-04-02T19:24:41.405Z,5.53
2023-04-02T19:27:18.022Z,5.33
2023-04-02T19:29:48.480Z,5.60
2023-04-02T19:32:28.266Z,5.20
2023-04-02T19:34:55.594Z,5.30
2023-04-02T19:37:25.749Z,5.10
2023-04-02T19:39:53.562Z,5.77
2023-04-02T19:42:40.091Z,6.90
2023-04-02T19:45:16.477Z,5.60
2023-04-02T19:47:44.032Z,6.40
2023-04-02T19:50:11.708Z,6.33
2023-04-02T19:52:39.144Z,6.33
2023-04-02T19:55:06.642Z,6.73
2023-04-02T19:57:34.077Z,6.23
2023-04-02T20:00:01.478Z,6.63
2023-04-02T20:02:29.285Z,6.53
2023-04-02T20:04:56.670Z,6.77
2023-04-02T20:07:24.380Z,6.80
2023-04-02T20:09:51.722Z,7.20
2023-04-02T20:12:19.103Z,6.87
2023-04-02T20:14:46.444Z,7.53
2023-04-02T20:17:13.846Z,7.00
2023-04-02T20:19:41.328Z,7.27
2023-04-02T20:22:09.013Z,6.53
2023-04-02T20:24:36.475Z,7.03
2023-04-02T20:27:03.839Z,6.87
2023-04-02T20:29:32.212Z,6.23
2023-04-02T20:31:59.646Z,6.30
2023-04-02T20:34:27.416Z,5.10
2023-04-02T20:36:54.864Z,4.77
2023-04-02T20:39:22.343Z,4.20
2023-04-02T20:41:49.737Z,4.10
2023-04-02T20:44:17.454Z,3.47
2023-04-02T20:46:44.797Z,2.97
2023-04-02T20:49:12.239Z,2.90
2023-04-02T20:51:39.592Z,2.77
2023-04-02T20:54:06.982Z,2.50
2023-04-02T20:56:34.379Z,2.23
2023-04-02T20:59:01.870Z,2.17
2023-04-02T21:01:30.360Z,1.93
2023-04-02T21:03:59.040Z,2.50
2023-04-02T21:06:27.921Z,2.13
2023-04-02T21:08:55.410Z,2.00
2023-04-02T21:11:23.090Z,2.10
2023-04-02T21:13:50.853Z,1.90
2023-04-02T21:16:19.891Z,1.83
2023-04-02T21:18:48.115Z,1.90
2023-04-02T21:21:16.003Z,2.10
2023-04-02T21:23:44.021Z,2.00
2023-04-02T21:26:20.714Z,1.70
2023-04-02T21:28:48.222Z,2.00
2023-04-02T21:31:17.106Z,1.67
2023-04-02T21:33:46.342Z,1.60
2023-04-02T21:36:15.408Z,1.80
